sensor_id;sensor_type;location;lat;lon;timestamp;temperature;humidity
57390;DHT22;43217;52.694;6.214;2023-08-06T00:00:19;15.00;99.90
57390;DHT22;43217;52.694;6.214;2023-08-06T00:02:45;15.00;99.90
57390;DHT22;43217;52.694;6.214;2023-08-06T00:05:10;15.00;99.90
57390;DHT22;43217;52.694;6.214;2023-08-06T00:07:37;15.00;99.90
57390;DHT22;43217;52.694;6.214;2023-08-06T00:10:03;14.90;99.90
57390;DHT22;43217;52.694;6.214;2023-08-06T00:12:29;14.90;99.90
57390;DHT22;43217;52.694;6.214;2023-08-06T00:14:54;14.90;99.90
57390;DHT22;43217;52.694;6.214;2023-08-06T00:17:20;14.90;99.90
57390;DHT22;43217;52.694;6.214;2023-08-06T00:19:46;14.90;99.90
57390;DHT22;43217;52.694;6.214;2023-08-06T00:22:11;14.90;99.90
57390;DHT22;43217;52.694;6.214;2023-08-06T00:24:37;14.90;99.90
57390;DHT22;43217;52.694;6.214;2023-08-06T00:27:03;14.90;99.90
57390;DHT22;43217;52.694;6.214;2023-08-06T00:29:29;14.90;99.90
57390;DHT22;43217;52.694;6.214;2023-08-06T00:31:54;14.90;99.90
57390;DHT22;43217;52.694;6.214;2023-08-06T00:34:20;14.90;99.90
57390;DHT22;43217;52.694;6.214;2023-08-06T00:36:46;14.90;99.90
57390;DHT22;43217;52.694;6.214;2023-08-06T00:39:12;14.90;99.90
57390;DHT22;43217;52.694;6.214;2023-08-06T00:41:37;14.80;99.90
57390;DHT22;43217;52.694;6.214;2023-08-06T00:44:03;14.80;99.90
57390;DHT22;43217;52.694;6.214;2023-08-06T00:46:29;14.80;99.90
57390;DHT22;43217;52.694;6.214;2023-08-06T00:48:55;14.80;99.90
57390;DHT22;43217;52.694;6.214;2023-08-06T00:51:22;14.80;99.90
57390;DHT22;43217;52.694;6.214;2023-08-06T00:53:49;14.80;99.90
57390;DHT22;43217;52.694;6.214;2023-08-06T00:56:15;14.70;99.90
57390;DHT22;43217;52.694;6.214;2023-08-06T00:58:41;14.70;99.90
57390;DHT22;43217;52.694;6.214;2023-08-06T01:01:07;14.60;99.90
57390;DHT22;43217;52.694;6.214;2023-08-06T01:03:33;14.70;99.90
57390;DHT22;43217;52.694;6.214;2023-08-06T01:05:58;14.60;99.90
57390;DHT22;43217;52.694;6.214;2023-08-06T01:11:18;14.60;99.90
57390;DHT22;43217;52.694;6.214;2023-08-06T01:13:47;14.60;99.90
57390;DHT22;43217;52.694;6.214;2023-08-06T01:16:19;14.60;99.90
57390;DHT22;43217;52.694;6.214;2023-08-06T01:18:48;14.60;99.90
57390;DHT22;43217;52.694;6.214;2023-08-06T01:21:18;14.60;99.90
57390;DHT22;43217;52.694;6.214;2023-08-06T01:23:45;14.60;99.90
57390;DHT22;43217;52.694;6.214;2023-08-06T01:26:30;14.50;99.90
57390;DHT22;43217;52.694;6.214;2023-08-06T01:31:43;14.40;99.90
57390;DHT22;43217;52.694;6.214;2023-08-06T01:34:17;14.40;99.90
57390;DHT22;43217;52.694;6.214;2023-08-06T01:36:43;14.40;99.90
57390;DHT22;43217;52.694;6.214;2023-08-06T01:39:09;14.40;99.90
57390;DHT22;43217;52.694;6.214;2023-08-06T01:41:35;14.40;99.90
57390;DHT22;43217;52.694;6.214;2023-08-06T01:44:01;14.40;99.90
57390;DHT22;43217;52.694;6.214;2023-08-06T01:46:26;14.40;99.90
57390;DHT22;43217;52.694;6.214;2023-08-06T01:48:52;14.40;99.90
57390;DHT22;43217;52.694;6.214;2023-08-06T01:51:18;14.40;99.90
57390;DHT22;43217;52.694;6.214;2023-08-06T01:53:43;14.40;99.90
57390;DHT22;43217;52.694;6.214;2023-08-06T01:56:09;14.40;99.90
57390;DHT22;43217;52.694;6.214;2023-08-06T01:58:36;14.40;99.90
57390;DHT22;43217;52.694;6.214;2023-08-06T02:01:02;14.50;99.90
57390;DHT22;43217;52.694;6.214;2023-08-06T02:03:28;14.50;99.90
57390;DHT22;43217;52.694;6.214;2023-08-06T02:05:54;14.50;99.90
57390;DHT22;43217;52.694;6.214;2023-08-06T02:08:19;14.50;99.90
57390;DHT22;43217;52.694;6.214;2023-08-06T02:10:48;14.50;99.90
57390;DHT22;43217;52.694;6.214;2023-08-06T02:13:14;14.50;99.90
57390;DHT22;43217;52.694;6.214;2023-08-06T02:15:43;14.50;99.90
57390;DHT22;43217;52.694;6.214;2023-08-06T02:18:09;14.40;99.90
57390;DHT22;43217;52.694;6.214;2023-08-06T02:20:35;14.40;99.90
57390;DHT22;43217;52.694;6.214;2023-08-06T02:23:00;14.40;99.90
57390;DHT22;43217;52.694;6.214;2023-08-06T02:25:26;14.40;99.90
57390;DHT22;43217;52.694;6.214;2023-08-06T02:27:57;14.40;99.90
57390;DHT22;43217;52.694;6.214;2023-08-06T02:30:23;14.40;99.90
57390;DHT22;43217;52.694;6.214;2023-08-06T02:32:51;14.40;99.90
57390;DHT22;43217;52.694;6.214;2023-08-06T02:35:16;14.40;99.90
57390;DHT22;43217;52.694;6.214;2023-08-06T02:37:42;14.40;99.90
57390;DHT22;43217;52.694;6.214;2023-08-06T02:40:08;14.40;99.90
57390;DHT22;43217;52.694;6.214;2023-08-06T02:42:34;14.40;99.90
57390;DHT22;43217;52.694;6.214;2023-08-06T02:44:59;14.40;99.90
57390;DHT22;43217;52.694;6.214;2023-08-06T02:47:25;14.40;99.90
57390;DHT22;43217;52.694;6.214;2023-08-06T02:49:51;14.40;99.90
57390;DHT22;43217;52.694;6.214;2023-08-06T02:52:16;14.30;99.90
57390;DHT22;43217;52.694;6.214;2023-08-06T02:54:42;14.40;99.90
57390;DHT22;43217;52.694;6.214;2023-08-06T02:57:08;14.40;99.90
57390;DHT22;43217;52.694;6.214;2023-08-06T02:59:34;14.40;99.90
57390;DHT22;43217;52.694;6.214;2023-08-06T03:01:59;14.40;99.90
57390;DHT22;43217;52.694;6.214;2023-08-06T03:04:25;14.40;99.90
57390;DHT22;43217;52.694;6.214;2023-08-06T03:06:51;14.40;99.90
57390;DHT22;43217;52.694;6.214;2023-08-06T03:09:17;14.40;99.90
57390;DHT22;43217;52.694;6.214;2023-08-06T03:11:43;14.40;99.90
57390;DHT22;43217;52.694;6.214;2023-08-06T03:14:09;14.40;99.90
57390;DHT22;43217;52.694;6.214;2023-08-06T03:16:35;14.50;99.90
57390;DHT22;43217;52.694;6.214;2023-08-06T03:19:01;14.40;99.90
57390;DHT22;43217;52.694;6.214;2023-08-06T03:21:26;14.40;99.90
57390;DHT22;43217;52.694;6.214;2023-08-06T03:23:52;14.40;99.90
57390;DHT22;43217;52.694;6.214;2023-08-06T03:26:18;14.40;99.90
57390;DHT22;43217;52.694;6.214;2023-08-06T03:28:44;14.40;99.90
57390;DHT22;43217;52.694;6.214;2023-08-06T03:31:09;14.40;99.90
57390;DHT22;43217;52.694;6.214;2023-08-06T03:33:35;14.40;99.90
57390;DHT22;43217;52.694;6.214;2023-08-06T03:36:01;14.40;99.90
57390;DHT22;43217;52.694;6.214;2023-08-06T03:38:27;14.50;99.90
57390;DHT22;43217;52.694;6.214;2023-08-06T03:40:53;14.50;99.90
57390;DHT22;43217;52.694;6.214;2023-08-06T03:43:19;14.40;99.90
57390;DHT22;43217;52.694;6.214;2023-08-06T03:45:45;14.40;99.90
57390;DHT22;43217;52.694;6.214;2023-08-06T03:48:10;14.40;99.90
57390;DHT22;43217;52.694;6.214;2023-08-06T03:50:36;14.40;99.90
57390;DHT22;43217;52.694;6.214;2023-08-06T03:53:02;14.40;99.90
57390;DHT22;43217;52.694;6.214;2023-08-06T03:55:27;14.40;99.90
57390;DHT22;43217;52.694;6.214;2023-08-06T03:57:53;14.40;99.90
57390;DHT22;43217;52.694;6.214;2023-08-06T04:00:19;14.40;99.90
57390;DHT22;43217;52.694;6.214;2023-08-06T04:02:45;14.40;99.90
57390;DHT22;43217;52.694;6.214;2023-08-06T04:05:11;14.50;99.90
57390;DHT22;43217;52.694;6.214;2023-08-06T04:07:37;14.50;99.90
57390;DHT22;43217;52.694;6.214;2023-08-06T04:10:04;14.50;99.90
57390;DHT22;43217;52.694;6.214;2023-08-06T04:12:30;14.50;99.90
57390;DHT22;43217;52.694;6.214;2023-08-06T04:14:58;14.50;99.90
57390;DHT22;43217;52.694;6.214;2023-08-06T04:17:24;14.50;99.90
57390;DHT22;43217;52.694;6.214;2023-08-06T04:19:54;14.50;99.90
57390;DHT22;43217;52.694;6.214;2023-08-06T04:22:20;14.50;99.90
57390;DHT22;43217;52.694;6.214;2023-08-06T04:24:46;14.50;99.90
57390;DHT22;43217;52.694;6.214;2023-08-06T04:27:14;14.50;99.90
57390;DHT22;43217;52.694;6.214;2023-08-06T04:29:41;14.60;99.90
57390;DHT22;43217;52.694;6.214;2023-08-06T04:32:08;14.50;99.90
57390;DHT22;43217;52.694;6.214;2023-08-06T04:34:35;14.60;99.90
57390;DHT22;43217;52.694;6.214;2023-08-06T04:37:01;14.60;99.90
57390;DHT22;43217;52.694;6.214;2023-08-06T04:39:27;14.50;99.90
57390;DHT22;43217;52.694;6.214;2023-08-06T04:41:52;14.50;99.90
57390;DHT22;43217;52.694;6.214;2023-08-06T04:44:18;14.50;99.90
57390;DHT22;43217;52.694;6.214;2023-08-06T04:46:43;14.50;99.90
57390;DHT22;43217;52.694;6.214;2023-08-06T04:49:09;14.50;99.90
57390;DHT22;43217;52.694;6.214;2023-08-06T04:51:35;14.50;99.90
57390;DHT22;43217;52.694;6.214;2023-08-06T04:54:01;14.50;99.90
57390;DHT22;43217;52.694;6.214;2023-08-06T04:56:26;14.50;99.90
57390;DHT22;43217;52.694;6.214;2023-08-06T04:58:52;14.50;99.90
57390;DHT22;43217;52.694;6.214;2023-08-06T05:01:18;14.60;99.90
57390;DHT22;43217;52.694;6.214;2023-08-06T05:03:44;14.50;99.90
57390;DHT22;43217;52.694;6.214;2023-08-06T05:06:11;14.60;99.90
57390;DHT22;43217;52.694;6.214;2023-08-06T05:08:36;14.60;99.90
57390;DHT22;43217;52.694;6.214;2023-08-06T05:11:02;14.60;99.90
57390;DHT22;43217;52.694;6.214;2023-08-06T05:13:28;14.60;99.90
57390;DHT22;43217;52.694;6.214;2023-08-06T05:15:54;14.60;99.90
57390;DHT22;43217;52.694;6.214;2023-08-06T05:18:20;14.60;99.90
57390;DHT22;43217;52.694;6.214;2023-08-06T05:20:45;14.60;99.90
57390;DHT22;43217;52.694;6.214;2023-08-06T05:23:11;14.60;99.90
57390;DHT22;43217;52.694;6.214;2023-08-06T05:25:40;14.70;99.90
57390;DHT22;43217;52.694;6.214;2023-08-06T05:28:06;14.70;99.90
57390;DHT22;43217;52.694;6.214;2023-08-06T05:30:32;14.70;99.90
57390;DHT22;43217;52.694;6.214;2023-08-06T05:32:57;14.70;99.90
57390;DHT22;43217;52.694;6.214;2023-08-06T05:35:23;14.70;99.90
57390;DHT22;43217;52.694;6.214;2023-08-06T05:37:50;14.70;99.90
57390;DHT22;43217;52.694;6.214;2023-08-06T05:40:15;14.70;99.90
57390;DHT22;43217;52.694;6.214;2023-08-06T05:42:41;14.70;99.90
57390;DHT22;43217;52.694;6.214;2023-08-06T05:45:07;14.80;99.90
57390;DHT22;43217;52.694;6.214;2023-08-06T05:47:33;14.80;99.90
57390;DHT22;43217;52.694;6.214;2023-08-06T05:49:59;14.80;99.90
57390;DHT22;43217;52.694;6.214;2023-08-06T05:52:25;14.80;99.90
57390;DHT22;43217;52.694;6.214;2023-08-06T05:54:50;14.80;99.90
57390;DHT22;43217;52.694;6.214;2023-08-06T05:57:16;14.80;99.90
57390;DHT22;43217;52.694;6.214;2023-08-06T05:59:42;14.80;99.90
57390;DHT22;43217;52.694;6.214;2023-08-06T06:02:08;14.80;99.90
57390;DHT22;43217;52.694;6.214;2023-08-06T06:04:34;14.90;99.90
57390;DHT22;43217;52.694;6.214;2023-08-06T06:06:59;14.90;99.90
57390;DHT22;43217;52.694;6.214;2023-08-06T06:09:25;14.90;99.90
57390;DHT22;43217;52.694;6.214;2023-08-06T06:11:50;14.90;99.90
57390;DHT22;43217;52.694;6.214;2023-08-06T06:14:17;14.90;99.90
57390;DHT22;43217;52.694;6.214;2023-08-06T06:16:43;15.00;99.90
57390;DHT22;43217;52.694;6.214;2023-08-06T06:19:09;15.00;99.90
57390;DHT22;43217;52.694;6.214;2023-08-06T06:21:35;15.00;99.90
57390;DHT22;43217;52.694;6.214;2023-08-06T06:24:00;15.00;99.90
57390;DHT22;43217;52.694;6.214;2023-08-06T06:26:26;15.00;99.90
57390;DHT22;43217;52.694;6.214;2023-08-06T06:28:51;15.00;99.90
57390;DHT22;43217;52.694;6.214;2023-08-06T06:31:17;15.10;99.90
57390;DHT22;43217;52.694;6.214;2023-08-06T06:33:43;15.10;99.90
57390;DHT22;43217;52.694;6.214;2023-08-06T06:36:08;15.10;99.90
57390;DHT22;43217;52.694;6.214;2023-08-06T06:38:35;15.10;99.90
57390;DHT22;43217;52.694;6.214;2023-08-06T06:41:01;15.10;99.90
57390;DHT22;43217;52.694;6.214;2023-08-06T06:43:28;15.10;99.90
57390;DHT22;43217;52.694;6.214;2023-08-06T06:45:58;15.20;99.90
57390;DHT22;43217;52.694;6.214;2023-08-06T06:48:25;15.20;99.90
57390;DHT22;43217;52.694;6.214;2023-08-06T06:50:51;15.20;99.90
57390;DHT22;43217;52.694;6.214;2023-08-06T06:53:17;15.20;99.90
57390;DHT22;43217;52.694;6.214;2023-08-06T06:55:44;15.20;99.90
57390;DHT22;43217;52.694;6.214;2023-08-06T06:58:10;15.30;99.90
57390;DHT22;43217;52.694;6.214;2023-08-06T07:00:36;15.30;99.90
57390;DHT22;43217;52.694;6.214;2023-08-06T07:03:09;15.30;99.90
57390;DHT22;43217;52.694;6.214;2023-08-06T07:05:34;15.40;99.90
57390;DHT22;43217;52.694;6.214;2023-08-06T07:08:02;15.40;99.90
57390;DHT22;43217;52.694;6.214;2023-08-06T07:10:28;15.40;99.90
57390;DHT22;43217;52.694;6.214;2023-08-06T07:12:53;15.40;99.90
57390;DHT22;43217;52.694;6.214;2023-08-06T07:15:19;15.40;99.90
57390;DHT22;43217;52.694;6.214;2023-08-06T07:17:45;15.40;99.90
57390;DHT22;43217;52.694;6.214;2023-08-06T07:20:11;15.50;99.90
57390;DHT22;43217;52.694;6.214;2023-08-06T07:22:37;15.50;99.90
57390;DHT22;43217;52.694;6.214;2023-08-06T07:25:02;15.50;99.90
57390;DHT22;43217;52.694;6.214;2023-08-06T07:27:28;15.40;99.90
57390;DHT22;43217;52.694;6.214;2023-08-06T07:29:54;15.50;99.90
57390;DHT22;43217;52.694;6.214;2023-08-06T07:32:19;15.40;99.90
57390;DHT22;43217;52.694;6.214;2023-08-06T07:34:45;15.40;99.90
57390;DHT22;43217;52.694;6.214;2023-08-06T07:37:11;15.40;99.90
57390;DHT22;43217;52.694;6.214;2023-08-06T07:39:37;15.40;99.90
57390;DHT22;43217;52.694;6.214;2023-08-06T07:42:14;15.40;99.90
57390;DHT22;43217;52.694;6.214;2023-08-06T07:44:40;15.50;99.90
57390;DHT22;43217;52.694;6.214;2023-08-06T07:47:05;15.50;99.90
57390;DHT22;43217;52.694;6.214;2023-08-06T07:49:32;15.60;99.90
57390;DHT22;43217;52.694;6.214;2023-08-06T07:51:58;15.60;99.90
57390;DHT22;43217;52.694;6.214;2023-08-06T07:54:23;15.70;99.90
57390;DHT22;43217;52.694;6.214;2023-08-06T07:56:51;15.70;99.90
57390;DHT22;43217;52.694;6.214;2023-08-06T07:59:17;15.70;99.90
57390;DHT22;43217;52.694;6.214;2023-08-06T08:01:43;15.70;99.90
57390;DHT22;43217;52.694;6.214;2023-08-06T08:04:08;15.80;99.90
57390;DHT22;43217;52.694;6.214;2023-08-06T08:06:34;15.80;99.90
57390;DHT22;43217;52.694;6.214;2023-08-06T08:09:01;15.90;99.90
57390;DHT22;43217;52.694;6.214;2023-08-06T08:11:26;16.00;99.90
57390;DHT22;43217;52.694;6.214;2023-08-06T08:13:52;16.10;99.90
57390;DHT22;43217;52.694;6.214;2023-08-06T08:16:18;16.10;99.90
57390;DHT22;43217;52.694;6.214;2023-08-06T08:18:43;16.10;99.90
57390;DHT22;43217;52.694;6.214;2023-08-06T08:21:09;16.20;99.90
57390;DHT22;43217;52.694;6.214;2023-08-06T08:23:34;16.20;99.90
57390;DHT22;43217;52.694;6.214;2023-08-06T08:26:00;16.20;99.90
57390;DHT22;43217;52.694;6.214;2023-08-06T08:28:27;16.30;99.90
57390;DHT22;43217;52.694;6.214;2023-08-06T08:30:53;16.40;99.90
57390;DHT22;43217;52.694;6.214;2023-08-06T08:33:18;16.50;99.90
57390;DHT22;43217;52.694;6.214;2023-08-06T08:35:46;16.50;99.90
57390;DHT22;43217;52.694;6.214;2023-08-06T08:38:12;16.60;99.90
57390;DHT22;43217;52.694;6.214;2023-08-06T08:40:43;16.60;99.90
57390;DHT22;43217;52.694;6.214;2023-08-06T08:43:11;16.70;99.90
57390;DHT22;43217;52.694;6.214;2023-08-06T08:45:39;16.80;99.90
57390;DHT22;43217;52.694;6.214;2023-08-06T08:48:08;16.80;99.90
57390;DHT22;43217;52.694;6.214;2023-08-06T08:50:34;16.80;99.90
57390;DHT22;43217;52.694;6.214;2023-08-06T08:53:00;16.80;99.90
57390;DHT22;43217;52.694;6.214;2023-08-06T08:55:26;16.90;99.90
57390;DHT22;43217;52.694;6.214;2023-08-06T08:57:52;17.00;99.90
57390;DHT22;43217;52.694;6.214;2023-08-06T09:00:17;17.10;99.90
57390;DHT22;43217;52.694;6.214;2023-08-06T09:02:44;17.10;99.90
57390;DHT22;43217;52.694;6.214;2023-08-06T09:05:11;17.30;99.90
57390;DHT22;43217;52.694;6.214;2023-08-06T09:07:48;17.40;99.90
57390;DHT22;43217;52.694;6.214;2023-08-06T09:10:16;17.40;99.90
57390;DHT22;43217;52.694;6.214;2023-08-06T09:12:44;17.40;99.90
57390;DHT22;43217;52.694;6.214;2023-08-06T09:15:10;17.50;99.90
57390;DHT22;43217;52.694;6.214;2023-08-06T09:17:36;17.50;99.90
57390;DHT22;43217;52.694;6.214;2023-08-06T09:20:10;17.60;99.90
57390;DHT22;43217;52.694;6.214;2023-08-06T09:22:36;17.60;99.90
57390;DHT22;43217;52.694;6.214;2023-08-06T09:25:01;17.70;99.90
57390;DHT22;43217;52.694;6.214;2023-08-06T09:27:29;17.70;99.90
57390;DHT22;43217;52.694;6.214;2023-08-06T09:29:54;17.80;99.90
57390;DHT22;43217;52.694;6.214;2023-08-06T09:32:20;17.80;99.90
57390;DHT22;43217;52.694;6.214;2023-08-06T09:34:46;18.00;99.90
57390;DHT22;43217;52.694;6.214;2023-08-06T09:37:11;18.10;99.90
57390;DHT22;43217;52.694;6.214;2023-08-06T09:39:39;18.20;99.90
57390;DHT22;43217;52.694;6.214;2023-08-06T09:42:08;18.30;99.90
57390;DHT22;43217;52.694;6.214;2023-08-06T09:44:34;18.40;99.90
57390;DHT22;43217;52.694;6.214;2023-08-06T09:47:02;18.50;99.90
57390;DHT22;43217;52.694;6.214;2023-08-06T09:49:41;18.70;99.90
57390;DHT22;43217;52.694;6.214;2023-08-06T09:52:12;18.70;99.90
57390;DHT22;43217;52.694;6.214;2023-08-06T09:54:38;18.80;99.90
57390;DHT22;43217;52.694;6.214;2023-08-06T09:57:05;18.90;99.90
57390;DHT22;43217;52.694;6.214;2023-08-06T09:59:32;18.90;99.90
57390;DHT22;43217;52.694;6.214;2023-08-06T10:01:58;19.00;99.90
57390;DHT22;43217;52.694;6.214;2023-08-06T10:04:23;19.00;99.90
57390;DHT22;43217;52.694;6.214;2023-08-06T10:06:49;19.10;99.90
57390;DHT22;43217;52.694;6.214;2023-08-06T10:09:16;19.10;99.90
57390;DHT22;43217;52.694;6.214;2023-08-06T10:11:43;19.10;99.90
57390;DHT22;43217;52.694;6.214;2023-08-06T10:14:23;19.20;99.90
57390;DHT22;43217;52.694;6.214;2023-08-06T10:16:50;19.30;99.90
57390;DHT22;43217;52.694;6.214;2023-08-06T10:19:17;19.30;99.90
57390;DHT22;43217;52.694;6.214;2023-08-06T10:22:13;19.30;99.90
57390;DHT22;43217;52.694;6.214;2023-08-06T10:24:52;19.40;99.90
57390;DHT22;43217;52.694;6.214;2023-08-06T10:27:40;19.40;99.90
57390;DHT22;43217;52.694;6.214;2023-08-06T10:32:49;19.70;99.90
57390;DHT22;43217;52.694;6.214;2023-08-06T10:45:54;19.70;99.90
57390;DHT22;43217;52.694;6.214;2023-08-06T10:48:40;19.70;99.90
57390;DHT22;43217;52.694;6.214;2023-08-06T10:51:09;19.80;99.90
57390;DHT22;43217;52.694;6.214;2023-08-06T10:53:35;19.70;99.90
57390;DHT22;43217;52.694;6.214;2023-08-06T10:56:02;19.80;99.90
57390;DHT22;43217;52.694;6.214;2023-08-06T10:58:34;19.90;99.90
57390;DHT22;43217;52.694;6.214;2023-08-06T11:00:59;20.00;99.90
57390;DHT22;43217;52.694;6.214;2023-08-06T11:03:27;20.20;99.90
57390;DHT22;43217;52.694;6.214;2023-08-06T11:05:53;20.40;99.90
57390;DHT22;43217;52.694;6.214;2023-08-06T11:08:28;20.60;99.90
57390;DHT22;43217;52.694;6.214;2023-08-06T11:10:55;20.70;99.90
57390;DHT22;43217;52.694;6.214;2023-08-06T11:13:21;20.60;99.90
57390;DHT22;43217;52.694;6.214;2023-08-06T11:15:47;20.60;99.90
57390;DHT22;43217;52.694;6.214;2023-08-06T11:18:13;20.70;99.90
57390;DHT22;43217;52.694;6.214;2023-08-06T11:20:39;20.70;99.90
57390;DHT22;43217;52.694;6.214;2023-08-06T11:23:05;20.70;99.90
57390;DHT22;43217;52.694;6.214;2023-08-06T11:25:35;20.90;99.90
57390;DHT22;43217;52.694;6.214;2023-08-06T11:28:01;21.10;99.90
57390;DHT22;43217;52.694;6.214;2023-08-06T11:30:27;21.10;99.90
57390;DHT22;43217;52.694;6.214;2023-08-06T11:32:52;21.10;99.90
57390;DHT22;43217;52.694;6.214;2023-08-06T11:35:18;21.10;99.90
57390;DHT22;43217;52.694;6.214;2023-08-06T11:37:45;21.10;99.90
57390;DHT22;43217;52.694;6.214;2023-08-06T11:40:11;21.10;99.90
57390;DHT22;43217;52.694;6.214;2023-08-06T11:42:37;21.00;99.90
57390;DHT22;43217;52.694;6.214;2023-08-06T11:45:04;21.00;99.90
57390;DHT22;43217;52.694;6.214;2023-08-06T11:47:30;21.10;99.90
57390;DHT22;43217;52.694;6.214;2023-08-06T11:49:56;21.40;99.90
57390;DHT22;43217;52.694;6.214;2023-08-06T11:52:23;22.00;99.90
57390;DHT22;43217;52.694;6.214;2023-08-06T11:55:09;22.50;99.90
57390;DHT22;43217;52.694;6.214;2023-08-06T11:57:44;22.90;99.90
57390;DHT22;43217;52.694;6.214;2023-08-06T12:00:12;22.90;99.90
57390;DHT22;43217;52.694;6.214;2023-08-06T12:02:42;23.10;99.90
57390;DHT22;43217;52.694;6.214;2023-08-06T12:05:15;23.30;99.90
57390;DHT22;43217;52.694;6.214;2023-08-06T12:07:45;23.40;99.90
57390;DHT22;43217;52.694;6.214;2023-08-06T12:10:12;23.30;99.90
57390;DHT22;43217;52.694;6.214;2023-08-06T12:12:40;23.40;99.90
57390;DHT22;43217;52.694;6.214;2023-08-06T12:15:06;23.30;99.90
57390;DHT22;43217;52.694;6.214;2023-08-06T12:17:33;23.10;99.90
57390;DHT22;43217;52.694;6.214;2023-08-06T12:19:59;22.80;99.90
57390;DHT22;43217;52.694;6.214;2023-08-06T12:22:25;22.60;99.90
57390;DHT22;43217;52.694;6.214;2023-08-06T12:24:51;22.40;99.90
57390;DHT22;43217;52.694;6.214;2023-08-06T12:27:17;22.30;99.90
57390;DHT22;43217;52.694;6.214;2023-08-06T12:29:48;22.20;99.90
57390;DHT22;43217;52.694;6.214;2023-08-06T12:32:14;22.10;99.90
57390;DHT22;43217;52.694;6.214;2023-08-06T12:34:40;22.00;99.90
57390;DHT22;43217;52.694;6.214;2023-08-06T12:37:07;21.80;99.90
57390;DHT22;43217;52.694;6.214;2023-08-06T12:39:33;21.60;99.90
57390;DHT22;43217;52.694;6.214;2023-08-06T12:42:03;21.40;99.90
57390;DHT22;43217;52.694;6.214;2023-08-06T12:44:29;21.30;99.90
57390;DHT22;43217;52.694;6.214;2023-08-06T12:46:56;21.10;99.90
57390;DHT22;43217;52.694;6.214;2023-08-06T12:49:22;21.00;99.90
57390;DHT22;43217;52.694;6.214;2023-08-06T12:51:50;20.90;99.90
57390;DHT22;43217;52.694;6.214;2023-08-06T12:54:19;20.80;99.90
57390;DHT22;43217;52.694;6.214;2023-08-06T12:56:45;20.70;99.90
57390;DHT22;43217;52.694;6.214;2023-08-06T12:59:13;20.70;99.90
57390;DHT22;43217;52.694;6.214;2023-08-06T13:01:39;20.70;99.90
57390;DHT22;43217;52.694;6.214;2023-08-06T13:04:04;20.70;99.90
57390;DHT22;43217;52.694;6.214;2023-08-06T13:06:30;20.70;99.90
57390;DHT22;43217;52.694;6.214;2023-08-06T13:08:59;20.70;99.90
57390;DHT22;43217;52.694;6.214;2023-08-06T13:11:24;20.60;99.90
57390;DHT22;43217;52.694;6.214;2023-08-06T13:13:51;20.50;99.90
57390;DHT22;43217;52.694;6.214;2023-08-06T13:16:17;20.50;99.90
57390;DHT22;43217;52.694;6.214;2023-08-06T13:18:42;20.40;99.90
57390;DHT22;43217;52.694;6.214;2023-08-06T13:21:08;20.40;99.90
57390;DHT22;43217;52.694;6.214;2023-08-06T13:23:34;20.30;99.90
57390;DHT22;43217;52.694;6.214;2023-08-06T13:25:59;20.10;99.90
57390;DHT22;43217;52.694;6.214;2023-08-06T13:28:25;20.00;99.90
57390;DHT22;43217;52.694;6.214;2023-08-06T13:30:50;20.00;99.90
57390;DHT22;43217;52.694;6.214;2023-08-06T13:33:17;19.90;99.90
57390;DHT22;43217;52.694;6.214;2023-08-06T13:35:43;19.80;99.90
57390;DHT22;43217;52.694;6.214;2023-08-06T13:38:09;19.70;99.90
57390;DHT22;43217;52.694;6.214;2023-08-06T13:40:36;19.60;99.90
57390;DHT22;43217;52.694;6.214;2023-08-06T13:43:01;19.50;99.90
57390;DHT22;43217;52.694;6.214;2023-08-06T13:45:27;19.40;99.90
57390;DHT22;43217;52.694;6.214;2023-08-06T13:47:53;19.30;99.90
57390;DHT22;43217;52.694;6.214;2023-08-06T13:50:19;19.20;99.90
57390;DHT22;43217;52.694;6.214;2023-08-06T13:52:45;19.10;99.90
57390;DHT22;43217;52.694;6.214;2023-08-06T13:55:10;19.10;99.90
57390;DHT22;43217;52.694;6.214;2023-08-06T13:57:36;19.10;99.90
57390;DHT22;43217;52.694;6.214;2023-08-06T14:00:03;19.00;99.90
57390;DHT22;43217;52.694;6.214;2023-08-06T14:02:29;18.90;99.90
57390;DHT22;43217;52.694;6.214;2023-08-06T14:04:55;18.90;99.90
57390;DHT22;43217;52.694;6.214;2023-08-06T14:07:20;18.70;99.90
57390;DHT22;43217;52.694;6.214;2023-08-06T14:09:46;18.70;99.90
57390;DHT22;43217;52.694;6.214;2023-08-06T14:12:13;18.70;99.90
57390;DHT22;43217;52.694;6.214;2023-08-06T14:14:39;18.70;99.90
57390;DHT22;43217;52.694;6.214;2023-08-06T14:17:05;18.60;99.90
57390;DHT22;43217;52.694;6.214;2023-08-06T14:19:30;18.50;99.90
57390;DHT22;43217;52.694;6.214;2023-08-06T14:21:56;18.50;99.90
57390;DHT22;43217;52.694;6.214;2023-08-06T14:24:22;18.30;99.90
57390;DHT22;43217;52.694;6.214;2023-08-06T14:26:47;18.30;99.90
57390;DHT22;43217;52.694;6.214;2023-08-06T14:29:13;18.20;99.90
57390;DHT22;43217;52.694;6.214;2023-08-06T14:31:40;18.20;99.90
57390;DHT22;43217;52.694;6.214;2023-08-06T14:34:06;18.00;99.90
57390;DHT22;43217;52.694;6.214;2023-08-06T14:36:32;18.00;99.90
57390;DHT22;43217;52.694;6.214;2023-08-06T14:38:57;17.90;99.90
57390;DHT22;43217;52.694;6.214;2023-08-06T14:41:23;17.90;99.90
57390;DHT22;43217;52.694;6.214;2023-08-06T14:43:50;17.80;99.90
57390;DHT22;43217;52.694;6.214;2023-08-06T14:46:15;17.80;99.90
57390;DHT22;43217;52.694;6.214;2023-08-06T14:48:41;17.70;99.90
57390;DHT22;43217;52.694;6.214;2023-08-06T14:51:08;17.70;99.90
57390;DHT22;43217;52.694;6.214;2023-08-06T14:53:34;17.70;99.90
57390;DHT22;43217;52.694;6.214;2023-08-06T14:55:59;17.60;99.90
57390;DHT22;43217;52.694;6.214;2023-08-06T14:58:25;17.50;99.90
57390;DHT22;43217;52.694;6.214;2023-08-06T15:00:51;17.50;99.90
57390;DHT22;43217;52.694;6.214;2023-08-06T15:03:16;17.40;99.90
57390;DHT22;43217;52.694;6.214;2023-08-06T15:05:51;17.40;99.90
57390;DHT22;43217;52.694;6.214;2023-08-06T15:08:17;17.40;99.90
57390;DHT22;43217;52.694;6.214;2023-08-06T15:10:43;17.40;99.90
57390;DHT22;43217;52.694;6.214;2023-08-06T15:13:14;17.40;99.90
57390;DHT22;43217;52.694;6.214;2023-08-06T15:15:40;17.30;99.90
57390;DHT22;43217;52.694;6.214;2023-08-06T15:18:07;17.30;99.90
57390;DHT22;43217;52.694;6.214;2023-08-06T15:20:33;17.30;99.90
57390;DHT22;43217;52.694;6.214;2023-08-06T15:22:59;17.20;99.90
57390;DHT22;43217;52.694;6.214;2023-08-06T15:25:24;17.20;99.90
57390;DHT22;43217;52.694;6.214;2023-08-06T15:27:50;17.20;99.90
57390;DHT22;43217;52.694;6.214;2023-08-06T15:30:16;17.20;99.90
57390;DHT22;43217;52.694;6.214;2023-08-06T15:32:48;17.20;99.90
57390;DHT22;43217;52.694;6.214;2023-08-06T15:35:14;17.20;99.90
57390;DHT22;43217;52.694;6.214;2023-08-06T15:37:50;17.20;99.90
57390;DHT22;43217;52.694;6.214;2023-08-06T15:40:16;17.20;99.90
57390;DHT22;43217;52.694;6.214;2023-08-06T15:42:41;17.20;99.90
57390;DHT22;43217;52.694;6.214;2023-08-06T15:45:07;17.20;99.90